createdAt,value
2023-02-16T00:01:17.704Z,51.56
2023-02-16T00:03:47.133Z,51.60
2023-02-16T00:06:17.199Z,51.51
2023-02-16T00:08:46.456Z,51.75
2023-02-16T00:11:36.372Z,51.47
2023-02-16T00:14:08.180Z,52.17
2023-02-16T00:16:38.575Z,51.80
2023-02-16T00:19:19.793Z,52.26
2023-02-16T00:21:48.768Z,52.09
2023-02-16T00:24:17.616Z,52.00
2023-02-16T00:26:47.415Z,52.00
2023-02-16T00:29:21.503Z,51.93
2023-02-16T00:31:51.770Z,52.20
2023-02-16T00:34:33.730Z,52.49
2023-02-16T00:37:05.164Z,52.65
2023-02-16T00:39:34.460Z,52.74
2023-02-16T00:42:04.621Z,52.83
2023-02-16T00:44:37.736Z,52.85
2023-02-16T00:47:19.326Z,52.84
2023-02-16T00:49:48.554Z,52.92
2023-02-16T00:52:31.462Z,52.88
2023-02-16T00:55:01.107Z,52.69
2023-02-16T00:57:32.668Z,52.99
2023-02-16T01:00:07.036Z,53.08
2023-02-16T01:02:37.457Z,52.91
2023-02-16T01:05:06.240Z,53.04
2023-02-16T01:07:52.889Z,52.88
2023-02-16T01:10:38.979Z,53.14
2023-02-16T01:13:07.569Z,53.12
2023-02-16T01:15:36.313Z,53.12
2023-02-16T01:18:06.156Z,53.12
2023-02-16T01:20:37.380Z,53.43
2023-02-16T01:23:06.353Z,53.43
2023-02-16T01:25:34.850Z,53.38
2023-02-16T01:28:04.670Z,53.53
2023-02-16T01:30:33.176Z,53.62
2023-02-16T01:33:01.678Z,53.57
2023-02-16T01:35:35.405Z,53.68
2023-02-16T01:38:03.625Z,54.42
2023-02-16T01:40:38.673Z,54.94
2023-02-16T01:43:11.683Z,54.83
2023-02-16T01:45:42.212Z,55.26
2023-02-16T01:48:18.259Z,55.68
2023-02-16T01:50:51.107Z,55.37
2023-02-16T01:53:22.660Z,54.32
2023-02-16T01:55:55.994Z,54.99
2023-02-16T01:58:29.756Z,54.55
2023-02-16T02:01:17.298Z,54.80
2023-02-16T02:04:02.688Z,55.04
2023-02-16T02:06:34.214Z,54.71
2023-02-16T02:09:04.358Z,54.78
2023-02-16T02:11:35.165Z,54.98
2023-02-16T02:14:07.457Z,54.84
2023-02-16T02:16:36.028Z,55.22
2023-02-16T02:19:04.102Z,54.90
2023-02-16T02:22:03.212Z,54.36
2023-02-16T02:24:41.128Z,55.28
2023-02-16T02:27:17.178Z,55.16
2023-02-16T02:30:06.826Z,55.08
2023-02-16T02:32:42.228Z,55.30
2023-02-16T02:35:17.160Z,54.92
2023-02-16T02:37:48.367Z,54.39
2023-02-16T02:40:20.334Z,53.98
2023-02-16T02:42:55.437Z,54.96
2023-02-16T02:45:25.499Z,55.13
2023-02-16T02:47:53.923Z,54.66
2023-02-16T02:51:03.685Z,56.09
2023-02-16T02:53:32.470Z,54.82
2023-02-16T02:56:18.358Z,55.40
2023-02-16T02:59:06.814Z,54.95
2023-02-16T03:01:37.634Z,54.75
2023-02-16T03:04:08.950Z,54.34
2023-02-16T03:06:39.718Z,54.92
2023-02-16T03:09:11.606Z,55.56
2023-02-16T03:11:57.563Z,55.14
2023-02-16T03:14:30.249Z,55.41
2023-02-16T03:17:16.206Z,55.81
2023-02-16T03:20:02.115Z,55.61
2023-02-16T03:22:47.898Z,55.58
2023-02-16T03:25:33.258Z,54.72
2023-02-16T03:28:19.320Z,56.95
2023-02-16T03:30:51.297Z,55.89
2023-02-16T03:33:20.072Z,55.56
2023-02-16T03:35:48.492Z,55.91
2023-02-16T03:38:16.743Z,55.69
2023-02-16T03:40:45.789Z,55.27
2023-02-16T03:43:13.945Z,55.77
2023-02-16T03:45:43.152Z,54.99
2023-02-16T03:48:13.300Z,54.78
2023-02-16T03:50:41.324Z,55.45
2023-02-16T03:53:09.432Z,55.67
2023-02-16T03:55:38.161Z,55.48
2023-02-16T03:58:06.569Z,55.52
2023-02-16T04:00:35.460Z,55.34
2023-02-16T04:03:03.844Z,54.62
2023-02-16T04:05:35.248Z,54.74
2023-02-16T04:08:04.037Z,55.18
2023-02-16T04:10:33.658Z,55.16
2023-02-16T04:13:01.986Z,55.02
2023-02-16T04:15:30.654Z,54.60
2023-02-16T04:17:59.148Z,54.90
2023-02-16T04:20:29.082Z,55.09
2023-02-16T04:22:59.721Z,55.14
2023-02-16T04:25:29.487Z,54.52
2023-02-16T04:27:58.414Z,54.89
2023-02-16T04:30:28.708Z,55.24
2023-02-16T04:32:57.779Z,55.49
2023-02-16T04:35:25.843Z,55.14
2023-02-16T04:37:53.850Z,54.71
2023-02-16T04:40:23.437Z,55.36
2023-02-16T04:42:51.436Z,55.00
2023-02-16T04:45:19.469Z,55.66
2023-02-16T04:47:47.458Z,55.15
2023-02-16T04:50:15.797Z,55.52
2023-02-16T04:52:43.938Z,55.34
2023-02-16T04:55:11.928Z,55.32
2023-02-16T04:57:41.602Z,55.00
2023-02-16T05:00:12.089Z,55.06
2023-02-16T05:02:40.220Z,54.30
2023-02-16T05:05:08.673Z,54.38
2023-02-16T05:07:37.094Z,53.92
2023-02-16T05:10:06.604Z,54.20
2023-02-16T05:12:51.967Z,54.02
2023-02-16T05:15:21.564Z,53.99
2023-02-16T05:17:50.501Z,53.72
2023-02-16T05:20:18.910Z,53.69
2023-02-16T05:22:47.677Z,53.78
2023-02-16T05:25:15.733Z,53.73
2023-02-16T05:27:43.937Z,53.85
2023-02-16T05:30:14.113Z,54.02
2023-02-16T05:32:43.743Z,53.78
2023-02-16T05:35:11.752Z,53.70
2023-02-16T05:37:42.680Z,53.81
2023-02-16T05:40:11.271Z,54.01
2023-02-16T05:42:39.327Z,53.80
2023-02-16T05:45:07.732Z,53.66
2023-02-16T05:47:35.744Z,54.19
2023-02-16T05:50:06.021Z,54.23
2023-02-16T05:52:34.063Z,53.92
2023-02-16T05:55:02.101Z,54.00
2023-02-16T05:57:30.464Z,54.18
2023-02-16T05:59:58.455Z,54.16
2023-02-16T06:02:26.778Z,54.00
2023-02-16T06:04:54.879Z,54.49
2023-02-16T06:07:24.421Z,54.40
2023-02-16T06:09:52.417Z,54.31
2023-02-16T06:12:20.434Z,54.34
2023-02-16T06:14:48.434Z,53.85
2023-02-16T06:17:16.531Z,54.15
2023-02-16T06:19:45.203Z,54.11
2023-02-16T06:22:13.345Z,53.18
2023-02-16T06:24:43.376Z,53.25
2023-02-16T06:27:11.384Z,53.56
2023-02-16T06:29:40.801Z,53.21
2023-02-16T06:32:08.902Z,53.78
2023-02-16T06:34:36.992Z,53.94
2023-02-16T06:37:06.168Z,53.99
2023-02-16T06:39:34.136Z,54.13
2023-02-16T06:42:04.730Z,53.83
2023-02-16T06:44:32.798Z,54.09
2023-02-16T06:47:02.365Z,53.81
2023-02-16T06:49:30.547Z,53.73
2023-02-16T06:51:58.699Z,54.20
2023-02-16T06:54:26.698Z,54.29
2023-02-16T06:56:55.712Z,54.09
2023-02-16T06:59:25.476Z,54.10
2023-02-16T07:01:53.591Z,54.34
2023-02-16T07:04:21.922Z,54.21
2023-02-16T07:06:50.110Z,53.96
2023-02-16T07:09:18.694Z,53.73
2023-02-16T07:11:46.835Z,53.66
2023-02-16T07:14:14.858Z,53.97
2023-02-16T07:16:44.309Z,54.53
2023-02-16T07:19:13.652Z,53.99
2023-02-16T07:21:43.007Z,54.07
2023-02-16T07:24:11.880Z,53.76
2023-02-16T07:26:41.112Z,52.88
2023-02-16T07:29:09.184Z,53.16
2023-02-16T07:31:37.243Z,53.28
2023-02-16T07:34:08.208Z,53.13
2023-02-16T07:36:37.279Z,53.08
2023-02-16T07:39:05.537Z,53.49
2023-02-16T07:41:34.651Z,53.48
2023-02-16T07:44:03.956Z,53.17
2023-02-16T07:46:33.434Z,53.42
2023-02-16T07:49:02.437Z,53.03
2023-02-16T07:51:33.749Z,52.98
2023-02-16T07:54:03.142Z,52.94
2023-02-16T07:56:33.196Z,52.99
2023-02-16T07:59:03.365Z,52.53
2023-02-16T08:01:32.878Z,52.82
2023-02-16T08:04:01.128Z,52.82
2023-02-16T08:06:30.450Z,52.70
2023-02-16T08:09:00.049Z,52.94
2023-02-16T08:11:28.112Z,52.58
2023-02-16T08:13:56.668Z,52.70
2023-02-16T08:16:26.448Z,52.58
2023-02-16T08:18:57.527Z,52.43
2023-02-16T08:21:26.416Z,52.76
2023-02-16T08:23:55.542Z,52.71
2023-02-16T08:26:25.900Z,52.29
2023-02-16T08:28:54.160Z,51.77
2023-02-16T08:31:23.481Z,51.93
2023-02-16T08:33:52.182Z,52.09
2023-02-16T08:36:21.573Z,51.58
2023-02-16T08:38:53.319Z,51.43
2023-02-16T08:41:22.999Z,51.16
2023-02-16T08:43:53.789Z,50.15
2023-02-16T08:46:23.883Z,50.61
2023-02-16T08:48:55.962Z,50.83
2023-02-16T08:51:26.037Z,50.79
2023-02-16T08:53:54.839Z,50.48
2023-02-16T08:56:24.052Z,51.07
2023-02-16T08:58:53.801Z,51.07
2023-02-16T09:01:23.867Z,50.74
2023-02-16T09:03:52.582Z,50.94
2023-02-16T09:06:23.342Z,50.85
2023-02-16T09:08:52.815Z,51.03
2023-02-16T09:11:21.211Z,50.67
2023-02-16T09:13:51.027Z,50.27
2023-02-16T09:16:22.853Z,50.55
2023-02-16T09:18:51.190Z,50.36
2023-02-16T09:21:21.211Z,49.94
2023-02-16T09:23:51.715Z,50.12
2023-02-16T09:26:20.728Z,50.19
2023-02-16T09:28:51.383Z,50.11
2023-02-16T09:31:25.913Z,50.58
2023-02-16T09:33:54.583Z,50.70
2023-02-16T09:36:22.603Z,50.42
2023-02-16T09:38:51.546Z,50.38
2023-02-16T09:41:24.530Z,50.44
2023-02-16T09:43:57.003Z,50.48
2023-02-16T09:46:27.588Z,50.37
2023-02-16T09:48:56.134Z,50.18
2023-02-16T09:51:34.295Z,50.43
2023-02-16T09:54:07.124Z,50.08
2023-02-16T09:56:38.155Z,50.39
2023-02-16T09:59:13.152Z,50.57
2023-02-16T10:01:45.710Z,50.47
2023-02-16T10:04:26.050Z,50.29
2023-02-16T10:06:59.354Z,50.29
2023-02-16T10:09:30.037Z,50.45
2023-02-16T10:12:02.653Z,50.74
2023-02-16T10:14:34.171Z,50.39
2023-02-16T10:17:19.640Z,50.89
2023-02-16T10:19:49.949Z,51.01
2023-02-16T10:22:23.190Z,50.92
2023-02-16T10:24:57.811Z,51.02
2023-02-16T10:27:29.699Z,50.91
2023-02-16T10:29:58.626Z,50.91
2023-02-16T10:32:31.399Z,50.67
2023-02-16T10:35:07.002Z,50.64
2023-02-16T10:37:45.341Z,50.84
2023-02-16T10:40:32.578Z,51.03
2023-02-16T10:43:07.634Z,50.41
2023-02-16T10:45:40.068Z,50.54
2023-02-16T10:48:10.843Z,50.38
2023-02-16T10:50:42.637Z,50.08
2023-02-16T10:53:15.484Z,50.52
2023-02-16T10:55:43.546Z,50.47
2023-02-16T10:58:22.564Z,50.22
2023-02-16T11:00:55.017Z,50.11
2023-02-16T11:03:30.930Z,50.01
2023-02-16T11:06:13.915Z,48.68
2023-02-16T11:08:49.548Z,49.50
2023-02-16T11:11:19.297Z,49.46
2023-02-16T11:13:50.143Z,48.78
2023-02-16T11:16:22.365Z,49.17
2023-02-16T11:18:58.047Z,49.16
2023-02-16T11:21:44.344Z,47.72
2023-02-16T11:24:15.389Z,48.76
2023-02-16T11:26:44.584Z,47.97
2023-02-16T11:29:21.148Z,48.46
2023-02-16T11:31:55.183Z,47.41
2023-02-16T11:34:32.502Z,47.60
2023-02-16T11:37:05.758Z,47.42
2023-02-16T11:39:37.438Z,47.61
2023-02-16T11:42:08.982Z,47.35
2023-02-16T11:44:39.901Z,48.03
2023-02-16T11:47:11.136Z,47.71
2023-02-16T11:49:41.985Z,47.21
2023-02-16T11:52:22.893Z,46.99
2023-02-16T11:54:52.051Z,47.25
2023-02-16T11:57:25.251Z,47.12
2023-02-16T11:59:53.399Z,45.51
2023-02-16T12:02:40.444Z,46.47
2023-02-16T12:05:30.648Z,46.59
2023-02-16T12:08:13.528Z,46.04
2023-02-16T12:10:48.350Z,46.04
2023-02-16T12:13:20.761Z,44.96
2023-02-16T12:15:53.390Z,45.42
2023-02-16T12:18:32.950Z,45.61
2023-02-16T12:21:05.687Z,46.25
2023-02-16T12:23:40.419Z,45.58
2023-02-16T12:26:36.803Z,45.89
2023-02-16T12:29:13.296Z,44.36
2023-02-16T12:31:51.750Z,43.85
2023-02-16T12:34:25.373Z,44.47
2023-02-16T12:37:00.906Z,43.43
2023-02-16T12:39:38.920Z,44.17
2023-02-16T12:42:18.574Z,43.49
2023-02-16T12:44:50.565Z,42.18
2023-02-16T12:47:22.578Z,42.75
2023-02-16T12:49:53.800Z,42.81
2023-02-16T12:52:28.929Z,40.79
2023-02-16T12:55:00.856Z,40.79
2023-02-16T12:57:30.949Z,42.40
2023-02-16T13:00:01.444Z,40.72
2023-02-16T13:02:34.011Z,42.32
2023-02-16T13:05:08.778Z,43.81
2023-02-16T13:07:43.456Z,43.76
2023-02-16T13:10:19.805Z,41.90
2023-02-16T13:12:52.616Z,43.40
2023-02-16T13:15:23.668Z,41.31
2023-02-16T13:17:54.172Z,41.56
2023-02-16T13:20:23.229Z,42.82
2023-02-16T13:23:12.085Z,40.83
2023-02-16T13:25:55.001Z,39.63
2023-02-16T13:28:33.730Z,41.76
2023-02-16T13:31:09.248Z,40.38
2023-02-16T13:33:47.035Z,41.09
2023-02-16T13:36:32.340Z,39.70
2023-02-16T13:39:16.688Z,41.45
2023-02-16T13:42:04.617Z,40.58
2023-02-16T13:44:36.907Z,41.75
2023-02-16T13:47:05.891Z,42.08
2023-02-16T13:49:38.641Z,41.81
2023-02-16T13:52:08.740Z,41.79
2023-02-16T13:54:38.795Z,41.93
2023-02-16T13:57:12.762Z,41.88
2023-02-16T13:59:59.533Z,41.88
2023-02-16T14:02:46.782Z,41.73
2023-02-16T14:05:24.771Z,41.51
2023-02-16T14:08:11.400Z,41.89
2023-02-16T14:10:57.587Z,42.28
2023-02-16T14:13:29.919Z,42.85
2023-02-16T14:15:58.945Z,43.98
2023-02-16T14:18:33.287Z,43.65
2023-02-16T14:21:04.414Z,44.38
2023-02-16T14:23:34.908Z,44.45
2023-02-16T14:26:04.335Z,44.39
2023-02-16T14:29:06.948Z,44.86
2023-02-16T14:31:42.070Z,44.92
2023-02-16T14:34:17.284Z,44.88
2023-02-16T14:37:04.490Z,45.76
2023-02-16T14:39:36.434Z,44.96
2023-02-16T14:42:16.630Z,46.19
2023-02-16T14:44:56.274Z,46.28
2023-02-16T14:47:32.876Z,46.95
2023-02-16T14:50:17.570Z,46.10
2023-02-16T14:52:58.899Z,47.13
2023-02-16T14:55:53.090Z,47.07
2023-02-16T14:58:28.722Z,47.50
2023-02-16T15:00:59.819Z,47.50
2023-02-16T15:03:28.441Z,47.73
2023-02-16T15:06:01.045Z,47.45
2023-02-16T15:08:35.108Z,47.65
2023-02-16T15:11:20.669Z,47.66
2023-02-16T15:13:53.782Z,47.94
2023-02-16T15:16:22.801Z,47.33
2023-02-16T15:18:52.212Z,47.71
2023-02-16T15:21:22.336Z,48.15
2023-02-16T15:23:51.377Z,47.74
2023-02-16T15:26:22.300Z,47.88
2023-02-16T15:28:55.333Z,49.08
2023-02-16T15:31:26.957Z,47.96
2023-02-16T15:33:57.377Z,47.93
2023-02-16T15:36:32.623Z,48.49
2023-02-16T15:39:03.341Z,48.97
2023-02-16T15:41:34.642Z,48.48
2023-02-16T15:44:04.627Z,48.18
2023-02-16T15:46:33.367Z,48.74
2023-02-16T15:49:12.586Z,49.39
2023-02-16T15:51:41.172Z,49.06
2023-02-16T15:54:14.817Z,47.72
2023-02-16T15:56:47.363Z,48.78
2023-02-16T15:59:35.326Z,48.38
2023-02-16T16:02:05.890Z,48.22
2023-02-16T16:04:38.806Z,49.69
2023-02-16T16:07:08.952Z,49.05
2023-02-16T16:09:37.561Z,50.18
2023-02-16T16:12:09.373Z,48.88
2023-02-16T16:14:40.172Z,48.93
2023-02-16T16:17:12.406Z,48.89
2023-02-16T16:19:40.427Z,48.97
2023-02-16T16:22:29.049Z,49.81
2023-02-16T16:24:58.276Z,48.63
2023-02-16T16:27:32.810Z,49.76
2023-02-16T16:30:11.643Z,48.99
2023-02-16T16:32:39.893Z,49.92
2023-02-16T16:35:20.404Z,50.78
2023-02-16T16:37:50.724Z,50.86
2023-02-16T16:40:22.646Z,49.79
2023-02-16T16:43:07.693Z,49.72
2023-02-16T16:45:36.482Z,49.87
2023-02-16T16:48:09.810Z,50.60
2023-02-16T16:50:39.874Z,49.89
2023-02-16T16:53:27.776Z,50.87
2023-02-16T16:55:57.021Z,50.15
2023-02-16T16:58:27.695Z,49.99
2023-02-16T17:00:55.992Z,51.44
2023-02-16T17:03:24.974Z,50.61
2023-02-16T17:05:53.048Z,50.44
2023-02-16T17:08:21.704Z,50.32
2023-02-16T17:10:49.779Z,50.52
2023-02-16T17:13:20.956Z,51.54
2023-02-16T17:15:52.595Z,51.35
2023-02-16T17:18:21.401Z,51.63
2023-02-16T17:20:51.061Z,51.98
2023-02-16T17:23:20.178Z,52.30
2023-02-16T17:25:48.440Z,52.87
2023-02-16T17:28:17.215Z,52.98
2023-02-16T17:30:45.785Z,52.98
2023-02-16T17:33:15.383Z,53.11
2023-02-16T17:35:45.053Z,53.34
2023-02-16T17:38:14.324Z,54.52
2023-02-16T17:40:44.764Z,54.00
2023-02-16T17:43:14.827Z,54.92
2023-02-16T17:45:43.925Z,54.86
2023-02-16T17:48:16.226Z,55.12
2023-02-16T17:50:45.599Z,56.31
2023-02-16T17:53:14.367Z,54.85
2023-02-16T17:55:43.936Z,55.93
2023-02-16T17:58:12.098Z,56.14
2023-02-16T18:00:40.621Z,54.99
2023-02-16T18:03:09.647Z,56.14
2023-02-16T18:05:39.931Z,55.42
2023-02-16T18:08:09.803Z,55.25
2023-02-16T18:10:43.106Z,55.29
2023-02-16T18:13:14.367Z,55.86
2023-02-16T18:15:45.965Z,56.24
2023-02-16T18:18:16.374Z,56.20
2023-02-16T18:20:47.954Z,57.66
2023-02-16T18:23:16.961Z,56.53
2023-02-16T18:25:45.946Z,56.66
2023-02-16T18:28:18.486Z,56.20
2023-02-16T18:30:47.903Z,56.79
2023-02-16T18:33:15.923Z,56.57
2023-02-16T18:35:44.123Z,57.55
2023-02-16T18:38:13.705Z,56.91
2023-02-16T18:40:42.908Z,56.83
2023-02-16T18:43:11.529Z,56.73
2023-02-16T18:45:39.777Z,57.34
2023-02-16T18:48:09.287Z,57.06
2023-02-16T18:50:37.763Z,57.44
2023-02-16T18:53:05.821Z,57.17
2023-02-16T18:55:35.815Z,56.94
2023-02-16T18:58:06.703Z,56.97
2023-02-16T19:00:35.934Z,57.10
2023-02-16T19:03:05.165Z,57.39
2023-02-16T19:05:34.422Z,56.72
2023-02-16T19:08:02.871Z,56.46
2023-02-16T19:10:31.374Z,56.49
2023-02-16T19:13:03.300Z,57.26
2023-02-16T19:15:33.386Z,57.05
2023-02-16T19:18:01.505Z,57.47
2023-02-16T19:20:29.845Z,57.68
2023-02-16T19:22:59.275Z,57.05
2023-02-16T19:25:28.991Z,57.08
2023-02-16T19:27:58.145Z,57.21
2023-02-16T19:30:29.399Z,57.11
2023-02-16T19:32:58.781Z,57.37
2023-02-16T19:35:28.224Z,57.87
2023-02-16T19:37:58.031Z,57.78
2023-02-16T19:40:27.993Z,56.85
2023-02-16T19:42:57.508Z,57.31
2023-02-16T19:45:26.974Z,57.24
2023-02-16T19:47:58.248Z,56.83
2023-02-16T19:50:28.440Z,57.13
2023-02-16T19:52:58.049Z,57.54
2023-02-16T19:55:27.908Z,57.49
2023-02-16T19:57:57.668Z,57.03
2023-02-16T20:00:27.182Z,56.96
2023-02-16T20:02:58.321Z,57.33
2023-02-16T20:05:27.790Z,57.82
2023-02-16T20:07:57.350Z,57.56
2023-02-16T20:10:26.873Z,57.78
2023-02-16T20:12:55.944Z,57.54
2023-02-16T20:15:25.225Z,56.91
2023-02-16T20:17:55.836Z,57.04
2023-02-16T20:20:26.729Z,57.08
2023-02-16T20:22:55.795Z,57.49
2023-02-16T20:25:23.916Z,57.93
2023-02-16T20:27:53.736Z,57.48
2023-02-16T20:30:25.534Z,57.01
2023-02-16T20:32:55.504Z,57.53
2023-02-16T20:35:24.879Z,56.98
2023-02-16T20:37:57.089Z,56.93
2023-02-16T20:40:27.962Z,57.03
2023-02-16T20:42:57.580Z,56.83
2023-02-16T20:45:27.575Z,56.25
2023-02-16T20:48:00.859Z,56.41
2023-02-16T20:50:33.878Z,55.76
2023-02-16T20:53:03.436Z,55.92
2023-02-16T20:55:32.574Z,56.04
2023-02-16T20:58:02.338Z,56.43
2023-02-16T21:00:32.035Z,56.66
2023-02-16T21:03:01.784Z,56.29
2023-02-16T21:05:30.867Z,56.29
2023-02-16T21:08:00.460Z,56.24
2023-02-16T21:10:31.621Z,55.73
2023-02-16T21:13:01.414Z,55.60
2023-02-16T21:15:30.887Z,56.21
2023-02-16T21:18:01.133Z,55.61
2023-02-16T21:20:30.806Z,55.96
2023-02-16T21:23:00.175Z,56.19
2023-02-16T21:25:29.872Z,56.96
2023-02-16T21:27:58.110Z,56.34
2023-02-16T21:30:28.334Z,56.66
2023-02-16T21:32:57.810Z,56.67
2023-02-16T21:35:27.099Z,56.89
2023-02-16T21:37:56.154Z,57.17
2023-02-16T21:40:42.588Z,56.60
2023-02-16T21:43:14.575Z,57.04
2023-02-16T21:45:43.837Z,56.41
2023-02-16T21:48:30.392Z,56.59
2023-02-16T21:51:03.168Z,56.13
2023-02-16T21:53:32.369Z,56.26
2023-02-16T21:56:20.726Z,56.39
2023-02-16T21:58:51.218Z,56.40
2023-02-16T22:01:23.202Z,56.95
2023-02-16T22:03:56.096Z,56.86
2023-02-16T22:06:25.531Z,56.66
2023-02-16T22:08:53.646Z,56.68
2023-02-16T22:11:24.258Z,56.13
2023-02-16T22:13:56.272Z,56.40
2023-02-16T22:16:26.010Z,56.64
2023-02-16T22:18:57.228Z,56.69
2023-02-16T22:21:25.416Z,56.81
2023-02-16T22:23:53.430Z,56.58
2023-02-16T22:26:23.128Z,56.83
2023-02-16T22:28:51.364Z,56.80
2023-02-16T22:31:22.843Z,56.79
2023-02-16T22:33:55.814Z,57.23
2023-02-16T22:36:23.846Z,57.09
2023-02-16T22:38:53.077Z,57.56
2023-02-16T22:41:21.204Z,57.45
2023-02-16T22:43:53.498Z,56.98
2023-02-16T22:46:24.093Z,56.76
2023-02-16T22:48:52.284Z,56.47
2023-02-16T22:51:21.718Z,56.71
2023-02-16T22:53:51.124Z,56.74
2023-02-16T22:56:19.937Z,57.11
2023-02-16T22:58:48.126Z,57.40
2023-02-16T23:01:17.343Z,57.41
2023-02-16T23:03:48.802Z,57.29
2023-02-16T23:06:18.152Z,57.35
2023-02-16T23:08:46.953Z,58.02
2023-02-16T23:11:16.109Z,57.90
2023-02-16T23:13:44.145Z,57.76
2023-02-16T23:16:13.718Z,57.57
2023-02-16T23:18:42.106Z,57.59
2023-02-16T23:21:15.993Z,58.19
2023-02-16T23:23:43.963Z,57.77
2023-02-16T23:26:12.101Z,58.38
2023-02-16T23:28:42.029Z,58.22
2023-02-16T23:31:10.916Z,58.08
2023-02-16T23:33:40.555Z,57.73
2023-02-16T23:36:08.896Z,57.70
2023-02-16T23:38:39.342Z,58.10
2023-02-16T23:41:09.775Z,58.03
2023-02-16T23:43:39.366Z,57.57
2023-02-16T23:46:08.184Z,57.67
2023-02-16T23:48:36.476Z,58.08
2023-02-16T23:51:04.519Z,58.66
2023-02-16T23:53:33.385Z,58.10
2023-02-16T23:56:04.116Z,58.10
2023-02-16T23:58:33.980Z,58.63
